Aitkin, MN

12:01 PM CST on December 02, 2016 (GMT -0600)
Aitkin Municipal / Steve Kurtz Field | | Change Station

Elev 1204 ft 46.55 °N, 93.68 °W | Updated 8 minutes ago

Overcast
Overcast
28 °F
Feels Like 23 °F
N
5
Wind Variable Wind from West

Today
High -- | Low -- °F
--% Chance of Precip.
Yesterday
High -- | Low -- °F
Precip. -- in
Pressure 30.20 in
Visibility 10.0 miles
Clouds Overcast 1200 ft
Windchill 23 °F
Dew Point 21 °F
Humidity 74%
Rainfall 0.00 in
Snow Depth Not available.
7:39 AM 4:28 PM
Waxing Crescent, 9% visible
METAR KAIT 021753Z AUTO 28004KT 10SM OVC012 M02/M06 A3020 RMK AO2
Pressure 30.20 in
Visibility 10.0 miles
Clouds Overcast 1200 ft
Windchill 23 °F
Dew Point 21 °F
Humidity 74%
Rainfall 0.00 in
Snow Depth Not available.
7:39 AM 4:28 PM
Waxing Crescent, 9% visible
METAR KAIT 021753Z AUTO 28004KT 10SM OVC012 M02/M06 A3020 RMK AO2

10-Day Weather Forecast

Almanac

Astronomy

Dec. 02, 2016 Rise Set
Actual Time
Civil Twilight
Nautical Twilight
Astronomical Twilight
Moon
Length of Visible Light
Length of Day
Tomorrow will be .
, % of the Moon is Illuminated

Today's Extremes

State Highs State Lows

Community

WunderPhotos

Upload Photos

1,955,333 photos uploaded!

WunderBlog® & News

Nearby

Air Quality

  Air Quality AQ Index Pollutant
Not available.

Snow Depth

Station Depth Elevation

Earthquake Activity

City Distance Mag. Time & Date
Minimum magnitude displayed is 2.5.

Coastal Water Temperatures

Place Temperature

Stations

Nearby Weather Stations

Station Location Temp. Windchill Dew Point Humidity Wind Precip. Elev Updated Type
                   

Watches & Warnings

There are currently no watches in effect.